Pagrindinis puslapis
METAR-TAF:

METAR-TAF

Oro uostai :

Guilin, Kinija

platuma: 25-20N, ilguma: 110-18E, Aukštis: 166 m

Dabartinis oras

Ataskaita buvo paskelbta 1 valandą ir 9 minutes, ne 13:00 UTC
Vėjas 2 kt nuo kintamojo kryptimis
Temperatūra 15°C
Drėgmė 82%
Slėgis 1021 hPa
Matomumas: 8000 m
Su prošvaistėmis ne aukštis 7300 ft

METAR: ZGKL 211300Z VRB01MPS 8000 BKN073 15/12 Q1021 NOSIG

Laikas: 22:09 (14:09 UTC)

Prognozė

Ataskaita buvo paskelbta 4 valandos ir 59 minutes, ne 09:10 UTC
Prognozė galioja nuo 21 metu 12 UTC su 22 metu 12 UTC
Vėjas 6 kt iš Šiaurės Rytų
Matomumas 10 km arba daugiau
Su prošvaistėmis ne aukštis 5000 ft

TAF: ZGKL 210910Z 2112/2212 05003MPS 9999 BKN050 TX23/2208Z TN11/2123Z

Orai ataskaitas ir orų prognozės (METAR, TAF).

turimą stotys yra geltonos ir raudonos taškus žemėlapyje.

Perkelti pele per norėdami pamatyti stoties vardą.

Tada spustelėkite, norėdami matyti oro stebėjimo ir prognozės.

Norėdami pakeisti žemėlapį: spustelėkite ant žalios mygtukų su juodo kryžiaus žemyn,; žalią mygtuką su brūkšneliu, jei norite nutolinti; arba žalių rodyklių gretimoms žemėlapius.


METAR-TAF: